sensor_id;sensor_type;location;lat;lon;timestamp;P1;durP1;ratioP1;P2;durP2;ratioP2
22129;SDS011;11231;50.746;4.272;2023-04-03T00:01:31;23.87;;;12.10;;
22129;SDS011;11231;50.746;4.272;2023-04-03T00:03:57;23.60;;;12.83;;
22129;SDS011;11231;50.746;4.272;2023-04-03T00:06:23;21.10;;;12.37;;
22129;SDS011;11231;50.746;4.272;2023-04-03T00:08:49;19.03;;;11.43;;
22129;SDS011;11231;50.746;4.272;2023-04-03T00:11:16;20.77;;;12.20;;
22129;SDS011;11231;50.746;4.272;2023-04-03T00:13:43;22.23;;;11.80;;
22129;SDS011;11231;50.746;4.272;2023-04-03T00:16:09;21.93;;;11.80;;
22129;SDS011;11231;50.746;4.272;2023-04-03T00:18:36;19.23;;;10.87;;
22129;SDS011;11231;50.746;4.272;2023-04-03T00:21:02;18.30;;;10.60;;
22129;SDS011;11231;50.746;4.272;2023-04-03T00:23:28;19.63;;;10.33;;
22129;SDS011;11231;50.746;4.272;2023-04-03T00:25:54;17.50;;;10.33;;
22129;SDS011;11231;50.746;4.272;2023-04-03T00:28:20;17.77;;;10.87;;
22129;SDS011;11231;50.746;4.272;2023-04-03T00:30:48;16.23;;;10.33;;
22129;SDS011;11231;50.746;4.272;2023-04-03T00:33:15;15.97;;;9.90;;
22129;SDS011;11231;50.746;4.272;2023-04-03T00:35:41;19.73;;;10.20;;
22129;SDS011;11231;50.746;4.272;2023-04-03T00:38:07;18.27;;;9.70;;
22129;SDS011;11231;50.746;4.272;2023-04-03T00:40:37;18.03;;;10.23;;
22129;SDS011;11231;50.746;4.272;2023-04-03T00:43:14;19.77;;;9.57;;
22129;SDS011;11231;50.746;4.272;2023-04-03T00:45:43;20.43;;;10.80;;
22129;SDS011;11231;50.746;4.272;2023-04-03T00:48:16;22.93;;;11.60;;
22129;SDS011;11231;50.746;4.272;2023-04-03T00:50:45;17.87;;;10.43;;
22129;SDS011;11231;50.746;4.272;2023-04-03T00:53:15;20.47;;;10.77;;
22129;SDS011;11231;50.746;4.272;2023-04-03T00:55:46;17.63;;;10.40;;
22129;SDS011;11231;50.746;4.272;2023-04-03T00:58:14;20.50;;;10.90;;
22129;SDS011;11231;50.746;4.272;2023-04-03T01:00:44;18.67;;;10.50;;
22129;SDS011;11231;50.746;4.272;2023-04-03T01:03:16;18.57;;;10.17;;
22129;SDS011;11231;50.746;4.272;2023-04-03T01:05:42;16.27;;;9.80;;
22129;SDS011;11231;50.746;4.272;2023-04-03T01:08:08;18.30;;;10.93;;
22129;SDS011;11231;50.746;4.272;2023-04-03T01:10:33;18.83;;;10.27;;
22129;SDS011;11231;50.746;4.272;2023-04-03T01:12:59;19.53;;;10.17;;
22129;SDS011;11231;50.746;4.272;2023-04-03T01:15:26;20.43;;;9.77;;
22129;SDS011;11231;50.746;4.272;2023-04-03T01:17:57;20.47;;;10.37;;
22129;SDS011;11231;50.746;4.272;2023-04-03T01:25:52;15.73;;;8.83;;
22129;SDS011;11231;50.746;4.272;2023-04-03T01:28:24;15.43;;;8.83;;
22129;SDS011;11231;50.746;4.272;2023-04-03T01:33:41;18.80;;;9.53;;
22129;SDS011;11231;50.746;4.272;2023-04-03T01:36:07;18.53;;;9.60;;
22129;SDS011;11231;50.746;4.272;2023-04-03T01:38:34;17.83;;;9.77;;
22129;SDS011;11231;50.746;4.272;2023-04-03T01:41:00;17.10;;;9.10;;
22129;SDS011;11231;50.746;4.272;2023-04-03T01:43:26;15.60;;;9.20;;
22129;SDS011;11231;50.746;4.272;2023-04-03T01:45:51;15.87;;;8.83;;
22129;SDS011;11231;50.746;4.272;2023-04-03T01:48:19;18.13;;;9.60;;
22129;SDS011;11231;50.746;4.272;2023-04-03T01:50:45;16.03;;;9.40;;
22129;SDS011;11231;50.746;4.272;2023-04-03T01:53:11;19.00;;;8.70;;
22129;SDS011;11231;50.746;4.272;2023-04-03T01:55:38;16.43;;;8.97;;
22129;SDS011;11231;50.746;4.272;2023-04-03T01:58:04;17.83;;;9.73;;
22129;SDS011;11231;50.746;4.272;2023-04-03T02:00:30;16.97;;;9.30;;
22129;SDS011;11231;50.746;4.272;2023-04-03T02:02:55;15.93;;;9.23;;
22129;SDS011;11231;50.746;4.272;2023-04-03T02:05:22;16.30;;;9.47;;
22129;SDS011;11231;50.746;4.272;2023-04-03T02:07:48;16.13;;;9.63;;
22129;SDS011;11231;50.746;4.272;2023-04-03T02:10:14;14.33;;;9.17;;
22129;SDS011;11231;50.746;4.272;2023-04-03T02:12:41;17.00;;;8.97;;
22129;SDS011;11231;50.746;4.272;2023-04-03T02:15:07;16.23;;;9.17;;
22129;SDS011;11231;50.746;4.272;2023-04-03T02:17:33;17.83;;;9.67;;
22129;SDS011;11231;50.746;4.272;2023-04-03T02:20:00;16.47;;;8.93;;
22129;SDS011;11231;50.746;4.272;2023-04-03T02:22:26;15.33;;;8.50;;
22129;SDS011;11231;50.746;4.272;2023-04-03T02:24:52;17.80;;;9.10;;
22129;SDS011;11231;50.746;4.272;2023-04-03T02:27:19;15.50;;;8.77;;
22129;SDS011;11231;50.746;4.272;2023-04-03T02:29:45;16.70;;;9.10;;
22129;SDS011;11231;50.746;4.272;2023-04-03T02:32:10;16.83;;;8.57;;
22129;SDS011;11231;50.746;4.272;2023-04-03T02:34:36;16.13;;;9.03;;
22129;SDS011;11231;50.746;4.272;2023-04-03T02:37:03;18.10;;;9.53;;
22129;SDS011;11231;50.746;4.272;2023-04-03T02:39:29;15.50;;;9.07;;
22129;SDS011;11231;50.746;4.272;2023-04-03T02:41:57;17.60;;;9.90;;
22129;SDS011;11231;50.746;4.272;2023-04-03T02:44:24;15.53;;;8.70;;
22129;SDS011;11231;50.746;4.272;2023-04-03T02:46:51;19.10;;;9.73;;
22129;SDS011;11231;50.746;4.272;2023-04-03T02:49:17;16.70;;;9.00;;
22129;SDS011;11231;50.746;4.272;2023-04-03T02:51:42;16.73;;;9.50;;
22129;SDS011;11231;50.746;4.272;2023-04-03T02:54:09;17.88;;;10.70;;
22129;SDS011;11231;50.746;4.272;2023-04-03T02:56:38;19.27;;;9.27;;
22129;SDS011;11231;50.746;4.272;2023-04-03T02:59:07;19.57;;;9.60;;
22129;SDS011;11231;50.746;4.272;2023-04-03T03:01:35;16.63;;;9.37;;
22129;SDS011;11231;50.746;4.272;2023-04-03T03:04:01;17.07;;;9.20;;
22129;SDS011;11231;50.746;4.272;2023-04-03T03:06:27;16.33;;;9.40;;
22129;SDS011;11231;50.746;4.272;2023-04-03T03:08:53;16.50;;;9.03;;
22129;SDS011;11231;50.746;4.272;2023-04-03T03:11:19;16.83;;;9.10;;
22129;SDS011;11231;50.746;4.272;2023-04-03T03:13:46;15.47;;;9.00;;
22129;SDS011;11231;50.746;4.272;2023-04-03T03:16:11;15.97;;;8.23;;
22129;SDS011;11231;50.746;4.272;2023-04-03T03:18:37;16.53;;;8.93;;
22129;SDS011;11231;50.746;4.272;2023-04-03T03:21:03;16.60;;;8.90;;
22129;SDS011;11231;50.746;4.272;2023-04-03T03:23:30;17.20;;;8.90;;
22129;SDS011;11231;50.746;4.272;2023-04-03T03:26:01;14.30;;;8.30;;
22129;SDS011;11231;50.746;4.272;2023-04-03T03:28:33;16.17;;;8.97;;
22129;SDS011;11231;50.746;4.272;2023-04-03T03:31:00;16.43;;;9.00;;
22129;SDS011;11231;50.746;4.272;2023-04-03T03:33:26;15.60;;;9.23;;
22129;SDS011;11231;50.746;4.272;2023-04-03T03:35:52;17.60;;;10.27;;
22129;SDS011;11231;50.746;4.272;2023-04-03T03:38:19;17.30;;;9.70;;
22129;SDS011;11231;50.746;4.272;2023-04-03T03:40:48;19.43;;;10.17;;
22129;SDS011;11231;50.746;4.272;2023-04-03T03:43:17;17.00;;;10.17;;
22129;SDS011;11231;50.746;4.272;2023-04-03T03:45:49;19.23;;;10.20;;
22129;SDS011;11231;50.746;4.272;2023-04-03T03:48:17;16.37;;;10.27;;
22129;SDS011;11231;50.746;4.272;2023-04-03T03:50:42;17.57;;;9.90;;
22129;SDS011;11231;50.746;4.272;2023-04-03T03:53:08;18.70;;;10.07;;
22129;SDS011;11231;50.746;4.272;2023-04-03T03:55:34;21.40;;;10.33;;
22129;SDS011;11231;50.746;4.272;2023-04-03T03:58:00;18.23;;;10.07;;
22129;SDS011;11231;50.746;4.272;2023-04-03T04:00:28;19.83;;;10.30;;
22129;SDS011;11231;50.746;4.272;2023-04-03T04:02:55;21.60;;;9.97;;
22129;SDS011;11231;50.746;4.272;2023-04-03T04:05:22;21.83;;;11.20;;
22129;SDS011;11231;50.746;4.272;2023-04-03T04:07:48;16.70;;;10.60;;
22129;SDS011;11231;50.746;4.272;2023-04-03T04:10:14;19.90;;;9.90;;
22129;SDS011;11231;50.746;4.272;2023-04-03T04:12:42;16.60;;;10.27;;
22129;SDS011;11231;50.746;4.272;2023-04-03T04:15:09;16.73;;;9.33;;
22129;SDS011;11231;50.746;4.272;2023-04-03T04:17:35;17.87;;;9.23;;
22129;SDS011;11231;50.746;4.272;2023-04-03T04:20:04;17.00;;;8.83;;
22129;SDS011;11231;50.746;4.272;2023-04-03T04:22:31;16.40;;;9.63;;
22129;SDS011;11231;50.746;4.272;2023-04-03T04:24:58;17.87;;;8.83;;
22129;SDS011;11231;50.746;4.272;2023-04-03T04:27:24;16.00;;;9.20;;
22129;SDS011;11231;50.746;4.272;2023-04-03T04:29:50;16.90;;;9.27;;
22129;SDS011;11231;50.746;4.272;2023-04-03T04:32:16;16.13;;;8.40;;
22129;SDS011;11231;50.746;4.272;2023-04-03T04:34:42;16.60;;;9.20;;
22129;SDS011;11231;50.746;4.272;2023-04-03T04:37:08;17.57;;;9.17;;
22129;SDS011;11231;50.746;4.272;2023-04-03T04:39:34;18.30;;;9.30;;
22129;SDS011;11231;50.746;4.272;2023-04-03T04:42:00;18.97;;;8.73;;
22129;SDS011;11231;50.746;4.272;2023-04-03T04:44:29;18.23;;;10.10;;
22129;SDS011;11231;50.746;4.272;2023-04-03T04:46:55;17.73;;;9.07;;
22129;SDS011;11231;50.746;4.272;2023-04-03T04:49:21;15.60;;;9.17;;
22129;SDS011;11231;50.746;4.272;2023-04-03T04:51:47;14.13;;;9.43;;
22129;SDS011;11231;50.746;4.272;2023-04-03T04:54:13;17.70;;;9.77;;
22129;SDS011;11231;50.746;4.272;2023-04-03T04:56:39;18.33;;;9.03;;
22129;SDS011;11231;50.746;4.272;2023-04-03T04:59:06;14.77;;;8.83;;
22129;SDS011;11231;50.746;4.272;2023-04-03T05:01:31;17.60;;;10.07;;
22129;SDS011;11231;50.746;4.272;2023-04-03T05:04:05;18.03;;;9.63;;
22129;SDS011;11231;50.746;4.272;2023-04-03T05:06:31;17.53;;;9.87;;
22129;SDS011;11231;50.746;4.272;2023-04-03T05:08:59;17.10;;;9.53;;
22129;SDS011;11231;50.746;4.272;2023-04-03T05:11:25;18.13;;;9.70;;
22129;SDS011;11231;50.746;4.272;2023-04-03T05:13:52;19.00;;;9.77;;
22129;SDS011;11231;50.746;4.272;2023-04-03T05:16:17;18.27;;;10.47;;
22129;SDS011;11231;50.746;4.272;2023-04-03T05:18:43;19.27;;;10.23;;
22129;SDS011;11231;50.746;4.272;2023-04-03T05:21:16;20.63;;;10.13;;
22129;SDS011;11231;50.746;4.272;2023-04-03T05:23:43;20.37;;;9.93;;
22129;SDS011;11231;50.746;4.272;2023-04-03T05:26:09;21.13;;;9.90;;
22129;SDS011;11231;50.746;4.272;2023-04-03T05:28:36;15.60;;;10.17;;
22129;SDS011;11231;50.746;4.272;2023-04-03T05:31:02;16.63;;;9.67;;
22129;SDS011;11231;50.746;4.272;2023-04-03T05:33:33;18.37;;;10.40;;
22129;SDS011;11231;50.746;4.272;2023-04-03T05:36:03;17.57;;;9.57;;
22129;SDS011;11231;50.746;4.272;2023-04-03T05:38:32;20.37;;;9.67;;
22129;SDS011;11231;50.746;4.272;2023-04-03T05:40:58;16.70;;;9.73;;
22129;SDS011;11231;50.746;4.272;2023-04-03T05:43:24;16.73;;;9.90;;
22129;SDS011;11231;50.746;4.272;2023-04-03T05:45:51;18.10;;;10.63;;
22129;SDS011;11231;50.746;4.272;2023-04-03T05:48:19;16.43;;;9.97;;
22129;SDS011;11231;50.746;4.272;2023-04-03T05:50:46;17.47;;;9.57;;
22129;SDS011;11231;50.746;4.272;2023-04-03T05:53:19;13.07;;;7.70;;
22129;SDS011;11231;50.746;4.272;2023-04-03T05:55:49;13.60;;;7.17;;
22129;SDS011;11231;50.746;4.272;2023-04-03T05:58:15;11.17;;;6.50;;
22129;SDS011;11231;50.746;4.272;2023-04-03T06:00:42;10.90;;;6.60;;
22129;SDS011;11231;50.746;4.272;2023-04-03T06:03:08;14.43;;;6.10;;
22129;SDS011;11231;50.746;4.272;2023-04-03T06:05:34;12.20;;;6.90;;
22129;SDS011;11231;50.746;4.272;2023-04-03T06:08:00;10.90;;;6.00;;
22129;SDS011;11231;50.746;4.272;2023-04-03T06:10:25;11.73;;;6.07;;
22129;SDS011;11231;50.746;4.272;2023-04-03T06:12:51;14.17;;;6.43;;
22129;SDS011;11231;50.746;4.272;2023-04-03T06:15:17;12.93;;;6.30;;
22129;SDS011;11231;50.746;4.272;2023-04-03T06:17:43;9.83;;;6.00;;
22129;SDS011;11231;50.746;4.272;2023-04-03T06:20:09;11.40;;;6.33;;
22129;SDS011;11231;50.746;4.272;2023-04-03T06:22:35;11.67;;;6.40;;
22129;SDS011;11231;50.746;4.272;2023-04-03T06:25:01;12.20;;;6.80;;
22129;SDS011;11231;50.746;4.272;2023-04-03T06:27:27;10.93;;;6.87;;
22129;SDS011;11231;50.746;4.272;2023-04-03T06:29:53;13.67;;;6.97;;
22129;SDS011;11231;50.746;4.272;2023-04-03T06:32:18;13.77;;;7.60;;
22129;SDS011;11231;50.746;4.272;2023-04-03T06:34:44;15.13;;;8.20;;
22129;SDS011;11231;50.746;4.272;2023-04-03T06:37:17;17.80;;;9.60;;
22129;SDS011;11231;50.746;4.272;2023-04-03T06:39:45;18.27;;;9.10;;
22129;SDS011;11231;50.746;4.272;2023-04-03T06:42:11;17.03;;;8.73;;
22129;SDS011;11231;50.746;4.272;2023-04-03T06:44:46;15.23;;;9.20;;
22129;SDS011;11231;50.746;4.272;2023-04-03T06:47:12;18.20;;;9.00;;
22129;SDS011;11231;50.746;4.272;2023-04-03T06:49:39;14.50;;;7.70;;
22129;SDS011;11231;50.746;4.272;2023-04-03T06:52:04;14.07;;;7.73;;
22129;SDS011;11231;50.746;4.272;2023-04-03T06:54:31;15.20;;;7.40;;
22129;SDS011;11231;50.746;4.272;2023-04-03T06:56:57;13.20;;;6.30;;
22129;SDS011;11231;50.746;4.272;2023-04-03T06:59:23;12.20;;;6.53;;
22129;SDS011;11231;50.746;4.272;2023-04-03T07:01:49;12.63;;;6.53;;
22129;SDS011;11231;50.746;4.272;2023-04-03T07:04:14;11.77;;;6.03;;
22129;SDS011;11231;50.746;4.272;2023-04-03T07:06:40;13.83;;;6.77;;
22129;SDS011;11231;50.746;4.272;2023-04-03T07:09:07;13.17;;;5.90;;
22129;SDS011;11231;50.746;4.272;2023-04-03T07:11:34;12.37;;;7.37;;
22129;SDS011;11231;50.746;4.272;2023-04-03T07:14:01;10.90;;;6.13;;
22129;SDS011;11231;50.746;4.272;2023-04-03T07:16:27;11.70;;;6.53;;
22129;SDS011;11231;50.746;4.272;2023-04-03T07:18:55;9.93;;;6.27;;
22129;SDS011;11231;50.746;4.272;2023-04-03T07:21:22;11.83;;;6.53;;
22129;SDS011;11231;50.746;4.272;2023-04-03T07:23:48;12.40;;;6.73;;
22129;SDS011;11231;50.746;4.272;2023-04-03T07:26:14;10.60;;;6.53;;
22129;SDS011;11231;50.746;4.272;2023-04-03T07:28:40;12.20;;;6.80;;
22129;SDS011;11231;50.746;4.272;2023-04-03T07:31:07;10.93;;;6.53;;
22129;SDS011;11231;50.746;4.272;2023-04-03T07:33:36;12.70;;;5.97;;
22129;SDS011;11231;50.746;4.272;2023-04-03T07:36:02;12.73;;;6.53;;
22129;SDS011;11231;50.746;4.272;2023-04-03T07:38:29;10.83;;;6.00;;
22129;SDS011;11231;50.746;4.272;2023-04-03T07:40:55;10.47;;;5.67;;
22129;SDS011;11231;50.746;4.272;2023-04-03T07:43:22;13.33;;;6.10;;
22129;SDS011;11231;50.746;4.272;2023-04-03T07:45:49;11.57;;;6.00;;
22129;SDS011;11231;50.746;4.272;2023-04-03T07:48:16;10.73;;;5.87;;
22129;SDS011;11231;50.746;4.272;2023-04-03T07:50:43;12.93;;;6.67;;
22129;SDS011;11231;50.746;4.272;2023-04-03T07:53:09;10.90;;;6.47;;
22129;SDS011;11231;50.746;4.272;2023-04-03T07:55:35;11.40;;;5.90;;
22129;SDS011;11231;50.746;4.272;2023-04-03T07:58:07;9.47;;;5.70;;
22129;SDS011;11231;50.746;4.272;2023-04-03T08:00:37;10.50;;;5.77;;
22129;SDS011;11231;50.746;4.272;2023-04-03T08:03:03;10.67;;;5.67;;
22129;SDS011;11231;50.746;4.272;2023-04-03T08:05:29;12.37;;;5.40;;
22129;SDS011;11231;50.746;4.272;2023-04-03T08:07:54;11.40;;;5.73;;
22129;SDS011;11231;50.746;4.272;2023-04-03T08:10:20;10.50;;;6.30;;
22129;SDS011;11231;50.746;4.272;2023-04-03T08:12:46;10.53;;;5.30;;
22129;SDS011;11231;50.746;4.272;2023-04-03T08:15:12;9.60;;;5.17;;
22129;SDS011;11231;50.746;4.272;2023-04-03T08:17:39;8.20;;;4.47;;
22129;SDS011;11231;50.746;4.272;2023-04-03T08:20:05;8.57;;;4.50;;
22129;SDS011;11231;50.746;4.272;2023-04-03T08:22:32;8.60;;;4.10;;
22129;SDS011;11231;50.746;4.272;2023-04-03T08:24:58;12.17;;;5.37;;
22129;SDS011;11231;50.746;4.272;2023-04-03T08:27:25;9.23;;;4.70;;
22129;SDS011;11231;50.746;4.272;2023-04-03T08:29:51;10.10;;;4.67;;
22129;SDS011;11231;50.746;4.272;2023-04-03T08:32:17;10.23;;;4.50;;
22129;SDS011;11231;50.746;4.272;2023-04-03T08:34:43;9.97;;;4.60;;
22129;SDS011;11231;50.746;4.272;2023-04-03T08:37:09;11.67;;;4.90;;
22129;SDS011;11231;50.746;4.272;2023-04-03T08:39:36;10.37;;;4.37;;
22129;SDS011;11231;50.746;4.272;2023-04-03T08:42:03;7.63;;;4.20;;
22129;SDS011;11231;50.746;4.272;2023-04-03T08:44:39;9.67;;;4.47;;
22129;SDS011;11231;50.746;4.272;2023-04-03T08:50:11;8.07;;;3.83;;
22129;SDS011;11231;50.746;4.272;2023-04-03T08:52:43;6.87;;;3.43;;
22129;SDS011;11231;50.746;4.272;2023-04-03T08:57:48;8.90;;;3.90;;
22129;SDS011;11231;50.746;4.272;2023-04-03T09:00:17;8.60;;;3.50;;
22129;SDS011;11231;50.746;4.272;2023-04-03T09:02:50;9.77;;;3.50;;
22129;SDS011;11231;50.746;4.272;2023-04-03T09:05:18;7.57;;;3.10;;
22129;SDS011;11231;50.746;4.272;2023-04-03T09:07:47;7.10;;;2.93;;
22129;SDS011;11231;50.746;4.272;2023-04-03T09:10:23;8.50;;;3.10;;
22129;SDS011;11231;50.746;4.272;2023-04-03T09:12:57;7.73;;;3.30;;
22129;SDS011;11231;50.746;4.272;2023-04-03T09:15:28;6.83;;;3.10;;
22129;SDS011;11231;50.746;4.272;2023-04-03T09:23:14;9.03;;;3.80;;
22129;SDS011;11231;50.746;4.272;2023-04-03T09:25:43;9.80;;;4.10;;
22129;SDS011;11231;50.746;4.272;2023-04-03T09:28:09;6.73;;;3.60;;
22129;SDS011;11231;50.746;4.272;2023-04-03T09:30:35;9.33;;;3.37;;
22129;SDS011;11231;50.746;4.272;2023-04-03T09:33:02;6.53;;;3.00;;
22129;SDS011;11231;50.746;4.272;2023-04-03T09:35:29;7.20;;;3.40;;
22129;SDS011;11231;50.746;4.272;2023-04-03T09:37:58;9.53;;;3.30;;
22129;SDS011;11231;50.746;4.272;2023-04-03T09:42:55;9.87;;;3.40;;
22129;SDS011;11231;50.746;4.272;2023-04-03T09:45:24;9.03;;;3.60;;
22129;SDS011;11231;50.746;4.272;2023-04-03T09:48:15;6.30;;;3.10;;
22129;SDS011;11231;50.746;4.272;2023-04-03T09:53:50;10.07;;;3.50;;
22129;SDS011;11231;50.746;4.272;2023-04-03T09:58:41;6.77;;;3.03;;
22129;SDS011;11231;50.746;4.272;2023-04-03T10:03:47;9.27;;;3.20;;
22129;SDS011;11231;50.746;4.272;2023-04-03T10:06:42;8.30;;;2.80;;
22129;SDS011;11231;50.746;4.272;2023-04-03T10:09:16;8.97;;;2.70;;
22129;SDS011;11231;50.746;4.272;2023-04-03T10:12:00;7.17;;;2.77;;
22129;SDS011;11231;50.746;4.272;2023-04-03T10:14:30;7.87;;;2.30;;
22129;SDS011;11231;50.746;4.272;2023-04-03T10:19:36;7.63;;;2.57;;
22129;SDS011;11231;50.746;4.272;2023-04-03T10:38:59;6.30;;;2.30;;
22129;SDS011;11231;50.746;4.272;2023-04-03T10:44:35;7.23;;;2.00;;
22129;SDS011;11231;50.746;4.272;2023-04-03T10:47:32;4.87;;;1.83;;
22129;SDS011;11231;50.746;4.272;2023-04-03T10:52:48;6.63;;;2.03;;
22129;SDS011;11231;50.746;4.272;2023-04-03T10:58:00;4.10;;;1.70;;
22129;SDS011;11231;50.746;4.272;2023-04-03T11:00:39;6.33;;;1.90;;
22129;SDS011;11231;50.746;4.272;2023-04-03T11:03:16;6.27;;;1.80;;
22129;SDS011;11231;50.746;4.272;2023-04-03T11:05:52;6.57;;;1.80;;
22129;SDS011;11231;50.746;4.272;2023-04-03T11:08:27;3.63;;;1.40;;
22129;SDS011;11231;50.746;4.272;2023-04-03T11:11:12;6.17;;;1.60;;
22129;SDS011;11231;50.746;4.272;2023-04-03T11:16:31;6.17;;;1.80;;
22129;SDS011;11231;50.746;4.272;2023-04-03T11:19:07;7.60;;;1.97;;
22129;SDS011;11231;50.746;4.272;2023-04-03T11:21:42;5.73;;;1.90;;
22129;SDS011;11231;50.746;4.272;2023-04-03T11:24:16;5.07;;;1.80;;
22129;SDS011;11231;50.746;4.272;2023-04-03T11:26:52;6.27;;;1.70;;
22129;SDS011;11231;50.746;4.272;2023-04-03T11:29:23;6.10;;;1.87;;
22129;SDS011;11231;50.746;4.272;2023-04-03T11:34:45;5.70;;;1.50;;
22129;SDS011;11231;50.746;4.272;2023-04-03T11:42:43;7.33;;;1.93;;
22129;SDS011;11231;50.746;4.272;2023-04-03T11:47:51;5.67;;;1.90;;
22129;SDS011;11231;50.746;4.272;2023-04-03T11:53:41;5.27;;;1.90;;
22129;SDS011;11231;50.746;4.272;2023-04-03T11:55:58;6.30;;;2.00;;
22129;SDS011;11231;50.746;4.272;2023-04-03T11:58:30;7.13;;;2.00;;
22129;SDS011;11231;50.746;4.272;2023-04-03T12:01:42;5.73;;;1.80;;
22129;SDS011;11231;50.746;4.272;2023-04-03T12:04:09;5.00;;;1.43;;
22129;SDS011;11231;50.746;4.272;2023-04-03T12:09:22;6.30;;;1.70;;
22129;SDS011;11231;50.746;4.272;2023-04-03T12:11:51;5.33;;;1.60;;
22129;SDS011;11231;50.746;4.272;2023-04-03T12:14:17;5.00;;;1.70;;
22129;SDS011;11231;50.746;4.272;2023-04-03T12:16:44;8.13;;;1.83;;
22129;SDS011;11231;50.746;4.272;2023-04-03T12:26:47;5.60;;;1.83;;
22129;SDS011;11231;50.746;4.272;2023-04-03T12:35:14;6.57;;;1.70;;
22129;SDS011;11231;50.746;4.272;2023-04-03T12:45:58;6.33;;;1.70;;
22129;SDS011;11231;50.746;4.272;2023-04-03T12:48:31;5.47;;;1.90;;
22129;SDS011;11231;50.746;4.272;2023-04-03T12:51:00;4.97;;;1.70;;
22129;SDS011;11231;50.746;4.272;2023-04-03T12:53:28;5.93;;;1.77;;
22129;SDS011;11231;50.746;4.272;2023-04-03T12:58:52;7.40;;;1.70;;
22129;SDS011;11231;50.746;4.272;2023-04-03T13:01:23;5.70;;;1.80;;
22129;SDS011;11231;50.746;4.272;2023-04-03T13:03:54;7.83;;;2.30;;
22129;SDS011;11231;50.746;4.272;2023-04-03T13:06:26;5.27;;;1.87;;
22129;SDS011;11231;50.746;4.272;2023-04-03T13:08:59;5.30;;;1.80;;
22129;SDS011;11231;50.746;4.272;2023-04-03T13:12:01;3.63;;;1.47;;
22129;SDS011;11231;50.746;4.272;2023-04-03T13:14:26;5.27;;;1.77;;
22129;SDS011;11231;50.746;4.272;2023-04-03T13:16:57;6.67;;;1.67;;
22129;SDS011;11231;50.746;4.272;2023-04-03T13:19:26;5.43;;;1.70;;
22129;SDS011;11231;50.746;4.272;2023-04-03T13:21:56;5.47;;;1.63;;
22129;SDS011;11231;50.746;4.272;2023-04-03T13:24:34;2.87;;;1.10;;
22129;SDS011;11231;50.746;4.272;2023-04-03T13:27:02;4.40;;;1.47;;
22129;SDS011;11231;50.746;4.272;2023-04-03T13:29:29;5.03;;;1.70;;
22129;SDS011;11231;50.746;4.272;2023-04-03T13:31:57;6.07;;;1.63;;
22129;SDS011;11231;50.746;4.272;2023-04-03T13:34:27;5.73;;;1.73;;
22129;SDS011;11231;50.746;4.272;2023-04-03T13:36:57;4.70;;;1.40;;
22129;SDS011;11231;50.746;4.272;2023-04-03T13:39:29;4.27;;;1.37;;
22129;SDS011;11231;50.746;4.272;2023-04-03T13:42:01;4.90;;;1.40;;
22129;SDS011;11231;50.746;4.272;2023-04-03T13:44:41;3.47;;;1.50;;
22129;SDS011;11231;50.746;4.272;2023-04-03T13:49:42;3.67;;;1.30;;
22129;SDS011;11231;50.746;4.272;2023-04-03T13:52:30;5.80;;;1.40;;
22129;SDS011;11231;50.746;4.272;2023-04-03T13:55:19;4.67;;;1.10;;
22129;SDS011;11231;50.746;4.272;2023-04-03T13:57:48;4.97;;;1.40;;
22129;SDS011;11231;50.746;4.272;2023-04-03T14:05:54;3.73;;;1.20;;
22129;SDS011;11231;50.746;4.272;2023-04-03T14:08:20;4.13;;;1.20;;
22129;SDS011;11231;50.746;4.272;2023-04-03T14:10:46;4.47;;;1.40;;
22129;SDS011;11231;50.746;4.272;2023-04-03T14:13:15;4.97;;;1.27;;
22129;SDS011;11231;50.746;4.272;2023-04-03T14:15:43;4.53;;;1.33;;
22129;SDS011;11231;50.746;4.272;2023-04-03T14:18:14;5.83;;;1.50;;
22129;SDS011;11231;50.746;4.272;2023-04-03T14:20:43;4.73;;;1.70;;
22129;SDS011;11231;50.746;4.272;2023-04-03T14:23:09;3.50;;;1.20;;
22129;SDS011;11231;50.746;4.272;2023-04-03T14:25:35;5.17;;;1.53;;
22129;SDS011;11231;50.746;4.272;2023-04-03T14:28:06;4.20;;;1.40;;
22129;SDS011;11231;50.746;4.272;2023-04-03T14:30:47;4.10;;;1.57;;
22129;SDS011;11231;50.746;4.272;2023-04-03T14:33:15;5.17;;;1.40;;
22129;SDS011;11231;50.746;4.272;2023-04-03T14:35:42;4.60;;;1.50;;
22129;SDS011;11231;50.746;4.272;2023-04-03T14:38:20;5.73;;;1.80;;
22129;SDS011;11231;50.746;4.272;2023-04-03T14:40:49;4.97;;;1.43;;
22129;SDS011;11231;50.746;4.272;2023-04-03T14:43:15;4.57;;;1.43;;
22129;SDS011;11231;50.746;4.272;2023-04-03T14:45:42;6.27;;;2.07;;
22129;SDS011;11231;50.746;4.272;2023-04-03T14:48:19;5.97;;;1.90;;
22129;SDS011;11231;50.746;4.272;2023-04-03T14:50:47;7.63;;;1.60;;
22129;SDS011;11231;50.746;4.272;2023-04-03T14:53:13;5.17;;;1.63;;
22129;SDS011;11231;50.746;4.272;2023-04-03T14:55:40;5.13;;;1.63;;
22129;SDS011;11231;50.746;4.272;2023-04-03T14:58:11;7.00;;;2.00;;
22129;SDS011;11231;50.746;4.272;2023-04-03T15:00:39;4.83;;;1.60;;
22129;SDS011;11231;50.746;4.272;2023-04-03T15:03:05;5.33;;;1.60;;
22129;SDS011;11231;50.746;4.272;2023-04-03T15:05:31;6.17;;;1.60;;
22129;SDS011;11231;50.746;4.272;2023-04-03T15:07:57;4.73;;;1.63;;
22129;SDS011;11231;50.746;4.272;2023-04-03T15:10:25;3.73;;;1.30;;
22129;SDS011;11231;50.746;4.272;2023-04-03T15:12:53;3.27;;;1.30;;
22129;SDS011;11231;50.746;4.272;2023-04-03T15:15:20;3.90;;;1.50;;
22129;SDS011;11231;50.746;4.272;2023-04-03T15:17:47;6.53;;;1.80;;
22129;SDS011;11231;50.746;4.272;2023-04-03T15:20:19;4.53;;;1.50;;
22129;SDS011;11231;50.746;4.272;2023-04-03T15:22:47;5.00;;;1.20;;
22129;SDS011;11231;50.746;4.272;2023-04-03T15:25:13;5.00;;;1.47;;
22129;SDS011;11231;50.746;4.272;2023-04-03T15:27:40;4.73;;;1.40;;
22129;SDS011;11231;50.746;4.272;2023-04-03T15:30:06;5.93;;;1.37;;
22129;SDS011;11231;50.746;4.272;2023-04-03T15:32:38;6.17;;;1.67;;
22129;SDS011;11231;50.746;4.272;2023-04-03T15:35:04;5.20;;;1.50;;
22129;SDS011;11231;50.746;4.272;2023-04-03T15:37:30;4.97;;;1.53;;
22129;SDS011;11231;50.746;4.272;2023-04-03T15:39:56;2.93;;;1.10;;
22129;SDS011;11231;50.746;4.272;2023-04-03T15:42:21;5.33;;;1.60;;
22129;SDS011;11231;50.746;4.272;2023-04-03T15:44:47;3.40;;;1.20;;
22129;SDS011;11231;50.746;4.272;2023-04-03T15:47:13;5.40;;;1.50;;
22129;SDS011;11231;50.746;4.272;2023-04-03T15:49:39;2.97;;;1.43;;
22129;SDS011;11231;50.746;4.272;2023-04-03T15:52:05;4.63;;;1.50;;
22129;SDS011;11231;50.746;4.272;2023-04-03T15:54:30;4.40;;;1.67;;
22129;SDS011;11231;50.746;4.272;2023-04-03T15:56:57;3.67;;;1.70;;
22129;SDS011;11231;50.746;4.272;2023-04-03T15:59:22;6.43;;;2.00;;
22129;SDS011;11231;50.746;4.272;2023-04-03T16:01:48;6.80;;;1.90;;
22129;SDS011;11231;50.746;4.272;2023-04-03T16:04:16;4.53;;;1.80;;
22129;SDS011;11231;50.746;4.272;2023-04-03T16:06:42;4.77;;;1.83;;
22129;SDS011;11231;50.746;4.272;2023-04-03T16:09:08;5.23;;;1.73;;
22129;SDS011;11231;50.746;4.272;2023-04-03T16:11:34;5.40;;;1.90;;
22129;SDS011;11231;50.746;4.272;2023-04-03T16:14:02;5.13;;;1.83;;
22129;SDS011;11231;50.746;4.272;2023-04-03T16:16:28;4.63;;;1.70;;
22129;SDS011;11231;50.746;4.272;2023-04-03T16:18:54;7.27;;;2.20;;
22129;SDS011;11231;50.746;4.272;2023-04-03T16:21:21;6.03;;;2.37;;
22129;SDS011;11231;50.746;4.272;2023-04-03T16:23:47;4.83;;;1.60;;
22129;SDS011;11231;50.746;4.272;2023-04-03T16:26:13;7.97;;;2.17;;
22129;SDS011;11231;50.746;4.272;2023-04-03T16:28:39;6.67;;;2.20;;
22129;SDS011;11231;50.746;4.272;2023-04-03T16:31:05;7.20;;;2.10;;
22129;SDS011;11231;50.746;4.272;2023-04-03T16:33:32;6.00;;;2.30;;
22129;SDS011;11231;50.746;4.272;2023-04-03T16:35:58;4.27;;;2.00;;